sensor_id;sensor_type;location;lat;lon;timestamp;P1;durP1;ratioP1;P2;durP2;ratioP2
549;SDS011;20066;48.764;9.176;2023-06-22T00:00:30;13.50;;;9.33;;
549;SDS011;20066;48.764;9.176;2023-06-22T00:02:58;16.93;;;9.53;;
549;SDS011;20066;48.764;9.176;2023-06-22T00:05:28;13.63;;;8.70;;
549;SDS011;20066;48.764;9.176;2023-06-22T00:07:55;16.73;;;8.80;;
549;SDS011;20066;48.764;9.176;2023-06-22T00:10:23;18.43;;;9.73;;
549;SDS011;20066;48.764;9.176;2023-06-22T00:12:51;14.80;;;8.97;;
549;SDS011;20066;48.764;9.176;2023-06-22T00:15:19;15.73;;;9.17;;
549;SDS011;20066;48.764;9.176;2023-06-22T00:17:47;14.67;;;9.57;;
549;SDS011;20066;48.764;9.176;2023-06-22T00:20:15;15.00;;;10.10;;
549;SDS011;20066;48.764;9.176;2023-06-22T00:22:45;17.83;;;9.87;;
549;SDS011;20066;48.764;9.176;2023-06-22T00:25:14;15.57;;;9.87;;
549;SDS011;20066;48.764;9.176;2023-06-22T00:27:42;17.60;;;9.70;;
549;SDS011;20066;48.764;9.176;2023-06-22T00:30:10;16.63;;;9.83;;
549;SDS011;20066;48.764;9.176;2023-06-22T00:32:39;14.40;;;9.40;;
549;SDS011;20066;48.764;9.176;2023-06-22T00:35:07;18.23;;;10.37;;
549;SDS011;20066;48.764;9.176;2023-06-22T00:37:35;16.77;;;9.57;;
549;SDS011;20066;48.764;9.176;2023-06-22T00:40:05;18.20;;;10.30;;
549;SDS011;20066;48.764;9.176;2023-06-22T00:42:35;19.63;;;10.53;;
549;SDS011;20066;48.764;9.176;2023-06-22T00:45:03;15.17;;;9.60;;
549;SDS011;20066;48.764;9.176;2023-06-22T00:47:31;18.23;;;10.27;;
549;SDS011;20066;48.764;9.176;2023-06-22T00:50:01;15.43;;;9.73;;
549;SDS011;20066;48.764;9.176;2023-06-22T00:52:30;16.73;;;9.47;;
549;SDS011;20066;48.764;9.176;2023-06-22T00:55:01;18.43;;;10.00;;
549;SDS011;20066;48.764;9.176;2023-06-22T00:57:31;14.50;;;9.50;;
549;SDS011;20066;48.764;9.176;2023-06-22T00:59:59;18.00;;;9.67;;
549;SDS011;20066;48.764;9.176;2023-06-22T01:02:27;14.87;;;9.30;;
549;SDS011;20066;48.764;9.176;2023-06-22T01:04:56;13.30;;;9.17;;
549;SDS011;20066;48.764;9.176;2023-06-22T01:07:25;16.43;;;9.53;;
549;SDS011;20066;48.764;9.176;2023-06-22T01:09:59;16.50;;;10.10;;
549;SDS011;20066;48.764;9.176;2023-06-22T01:12:38;14.30;;;9.90;;
549;SDS011;20066;48.764;9.176;2023-06-22T01:15:08;17.47;;;9.97;;
549;SDS011;20066;48.764;9.176;2023-06-22T01:17:41;18.10;;;9.80;;
549;SDS011;20066;48.764;9.176;2023-06-22T01:20:11;20.00;;;10.67;;
549;SDS011;20066;48.764;9.176;2023-06-22T01:22:44;17.07;;;10.27;;
549;SDS011;20066;48.764;9.176;2023-06-22T01:25:19;14.93;;;9.37;;
549;SDS011;20066;48.764;9.176;2023-06-22T01:27:53;14.27;;;9.20;;
549;SDS011;20066;48.764;9.176;2023-06-22T01:30:31;15.00;;;9.23;;
549;SDS011;20066;48.764;9.176;2023-06-22T01:33:01;18.50;;;10.20;;
549;SDS011;20066;48.764;9.176;2023-06-22T01:35:32;16.63;;;9.00;;
549;SDS011;20066;48.764;9.176;2023-06-22T01:38:00;15.73;;;9.00;;
549;SDS011;20066;48.764;9.176;2023-06-22T01:40:28;17.13;;;9.70;;
549;SDS011;20066;48.764;9.176;2023-06-22T01:42:59;14.20;;;9.87;;
549;SDS011;20066;48.764;9.176;2023-06-22T01:45:27;15.10;;;9.80;;
549;SDS011;20066;48.764;9.176;2023-06-22T01:47:56;14.23;;;9.10;;
549;SDS011;20066;48.764;9.176;2023-06-22T01:50:25;15.20;;;9.27;;
549;SDS011;20066;48.764;9.176;2023-06-22T01:52:54;20.30;;;9.07;;
549;SDS011;20066;48.764;9.176;2023-06-22T01:55:21;16.40;;;9.90;;
549;SDS011;20066;48.764;9.176;2023-06-22T01:57:49;13.93;;;9.43;;
549;SDS011;20066;48.764;9.176;2023-06-22T02:00:18;14.63;;;10.00;;
549;SDS011;20066;48.764;9.176;2023-06-22T02:02:51;18.20;;;9.80;;
549;SDS011;20066;48.764;9.176;2023-06-22T02:05:26;13.50;;;9.63;;
549;SDS011;20066;48.764;9.176;2023-06-22T02:08:02;14.77;;;9.53;;
549;SDS011;20066;48.764;9.176;2023-06-22T02:10:35;15.37;;;9.47;;
549;SDS011;20066;48.764;9.176;2023-06-22T02:13:04;15.00;;;8.93;;
549;SDS011;20066;48.764;9.176;2023-06-22T02:15:34;17.10;;;9.33;;
549;SDS011;20066;48.764;9.176;2023-06-22T02:18:02;18.67;;;10.07;;
549;SDS011;20066;48.764;9.176;2023-06-22T02:20:33;17.77;;;11.17;;
549;SDS011;20066;48.764;9.176;2023-06-22T02:23:04;19.07;;;10.30;;
549;SDS011;20066;48.764;9.176;2023-06-22T02:25:32;15.13;;;9.47;;
549;SDS011;20066;48.764;9.176;2023-06-22T02:28:00;15.07;;;9.73;;
549;SDS011;20066;48.764;9.176;2023-06-22T02:30:28;14.10;;;9.30;;
549;SDS011;20066;48.764;9.176;2023-06-22T02:32:57;17.50;;;10.07;;
549;SDS011;20066;48.764;9.176;2023-06-22T02:35:26;13.80;;;9.07;;
549;SDS011;20066;48.764;9.176;2023-06-22T02:37:59;12.90;;;9.27;;
549;SDS011;20066;48.764;9.176;2023-06-22T02:40:28;14.03;;;9.20;;
549;SDS011;20066;48.764;9.176;2023-06-22T02:42:57;17.60;;;8.97;;
549;SDS011;20066;48.764;9.176;2023-06-22T02:45:28;15.50;;;10.67;;
549;SDS011;20066;48.764;9.176;2023-06-22T02:47:56;22.13;;;10.07;;
549;SDS011;20066;48.764;9.176;2023-06-22T02:50:24;19.47;;;11.50;;
549;SDS011;20066;48.764;9.176;2023-06-22T02:52:52;16.13;;;11.20;;
549;SDS011;20066;48.764;9.176;2023-06-22T02:55:22;16.60;;;10.27;;
549;SDS011;20066;48.764;9.176;2023-06-22T02:57:50;15.47;;;10.73;;
549;SDS011;20066;48.764;9.176;2023-06-22T03:00:19;17.97;;;9.57;;
549;SDS011;20066;48.764;9.176;2023-06-22T03:02:48;17.00;;;10.00;;
549;SDS011;20066;48.764;9.176;2023-06-22T03:05:16;17.30;;;10.43;;
549;SDS011;20066;48.764;9.176;2023-06-22T03:07:45;20.70;;;10.73;;
549;SDS011;20066;48.764;9.176;2023-06-22T03:10:13;18.30;;;11.30;;
549;SDS011;20066;48.764;9.176;2023-06-22T03:12:43;16.07;;;9.50;;
549;SDS011;20066;48.764;9.176;2023-06-22T03:15:12;25.37;;;10.83;;
549;SDS011;20066;48.764;9.176;2023-06-22T03:17:40;18.50;;;10.20;;
549;SDS011;20066;48.764;9.176;2023-06-22T03:20:08;18.20;;;10.83;;
549;SDS011;20066;48.764;9.176;2023-06-22T03:22:38;17.10;;;11.10;;
549;SDS011;20066;48.764;9.176;2023-06-22T03:25:07;15.30;;;10.30;;
549;SDS011;20066;48.764;9.176;2023-06-22T03:27:39;18.97;;;10.40;;
549;SDS011;20066;48.764;9.176;2023-06-22T03:30:09;18.47;;;11.20;;
549;SDS011;20066;48.764;9.176;2023-06-22T03:32:39;21.30;;;10.43;;
549;SDS011;20066;48.764;9.176;2023-06-22T03:35:07;19.30;;;10.80;;
549;SDS011;20066;48.764;9.176;2023-06-22T03:37:35;17.33;;;10.60;;
549;SDS011;20066;48.764;9.176;2023-06-22T03:40:04;19.87;;;10.53;;
549;SDS011;20066;48.764;9.176;2023-06-22T03:42:33;15.33;;;10.27;;
549;SDS011;20066;48.764;9.176;2023-06-22T03:45:02;16.23;;;10.60;;
549;SDS011;20066;48.764;9.176;2023-06-22T03:47:32;14.90;;;10.57;;
549;SDS011;20066;48.764;9.176;2023-06-22T03:50:00;16.57;;;10.57;;
549;SDS011;20066;48.764;9.176;2023-06-22T03:52:30;15.03;;;10.17;;
549;SDS011;20066;48.764;9.176;2023-06-22T03:54:57;18.40;;;10.50;;
549;SDS011;20066;48.764;9.176;2023-06-22T03:57:25;16.53;;;10.50;;
549;SDS011;20066;48.764;9.176;2023-06-22T03:59:54;19.03;;;11.50;;
549;SDS011;20066;48.764;9.176;2023-06-22T04:02:23;18.20;;;10.67;;
549;SDS011;20066;48.764;9.176;2023-06-22T04:04:53;17.50;;;10.57;;
549;SDS011;20066;48.764;9.176;2023-06-22T04:07:21;15.93;;;10.07;;
549;SDS011;20066;48.764;9.176;2023-06-22T04:09:49;19.33;;;9.47;;
549;SDS011;20066;48.764;9.176;2023-06-22T04:12:17;15.50;;;9.53;;
549;SDS011;20066;48.764;9.176;2023-06-22T04:14:44;17.27;;;10.53;;
549;SDS011;20066;48.764;9.176;2023-06-22T04:17:12;16.20;;;9.73;;
549;SDS011;20066;48.764;9.176;2023-06-22T04:19:41;16.20;;;9.77;;
549;SDS011;20066;48.764;9.176;2023-06-22T04:22:10;17.20;;;10.37;;
549;SDS011;20066;48.764;9.176;2023-06-22T04:24:38;18.60;;;11.20;;
549;SDS011;20066;48.764;9.176;2023-06-22T04:27:06;15.30;;;10.03;;
549;SDS011;20066;48.764;9.176;2023-06-22T04:29:34;21.50;;;10.80;;
549;SDS011;20066;48.764;9.176;2023-06-22T04:32:02;14.80;;;9.00;;
549;SDS011;20066;48.764;9.176;2023-06-22T04:34:32;18.00;;;11.07;;
549;SDS011;20066;48.764;9.176;2023-06-22T04:37:00;18.00;;;10.30;;
549;SDS011;20066;48.764;9.176;2023-06-22T04:39:29;18.73;;;9.97;;
549;SDS011;20066;48.764;9.176;2023-06-22T04:41:57;18.67;;;11.23;;
549;SDS011;20066;48.764;9.176;2023-06-22T04:44:27;18.60;;;11.67;;
549;SDS011;20066;48.764;9.176;2023-06-22T04:46:55;19.50;;;11.33;;
549;SDS011;20066;48.764;9.176;2023-06-22T04:49:27;21.40;;;11.67;;
549;SDS011;20066;48.764;9.176;2023-06-22T04:51:59;18.70;;;11.03;;
549;SDS011;20066;48.764;9.176;2023-06-22T04:56:56;17.20;;;10.40;;
549;SDS011;20066;48.764;9.176;2023-06-22T04:59:24;19.23;;;13.10;;
549;SDS011;20066;48.764;9.176;2023-06-22T05:01:54;20.93;;;11.93;;
549;SDS011;20066;48.764;9.176;2023-06-22T05:04:22;21.43;;;12.80;;
549;SDS011;20066;48.764;9.176;2023-06-22T05:06:51;21.73;;;11.43;;
549;SDS011;20066;48.764;9.176;2023-06-22T05:09:19;21.47;;;12.23;;
549;SDS011;20066;48.764;9.176;2023-06-22T05:11:47;22.27;;;13.30;;
549;SDS011;20066;48.764;9.176;2023-06-22T05:14:17;23.60;;;12.37;;
549;SDS011;20066;48.764;9.176;2023-06-22T05:16:45;21.27;;;13.33;;
549;SDS011;20066;48.764;9.176;2023-06-22T05:19:13;25.10;;;12.23;;
549;SDS011;20066;48.764;9.176;2023-06-22T05:21:41;25.07;;;12.50;;
549;SDS011;20066;48.764;9.176;2023-06-22T05:24:09;23.90;;;12.93;;
549;SDS011;20066;48.764;9.176;2023-06-22T05:26:37;23.23;;;12.93;;
549;SDS011;20066;48.764;9.176;2023-06-22T05:29:05;20.30;;;12.43;;
549;SDS011;20066;48.764;9.176;2023-06-22T05:31:34;20.90;;;12.43;;
549;SDS011;20066;48.764;9.176;2023-06-22T05:34:02;25.43;;;11.80;;
549;SDS011;20066;48.764;9.176;2023-06-22T05:36:30;20.37;;;11.63;;
549;SDS011;20066;48.764;9.176;2023-06-22T05:38:58;26.80;;;12.73;;
549;SDS011;20066;48.764;9.176;2023-06-22T05:41:25;20.70;;;12.07;;
549;SDS011;20066;48.764;9.176;2023-06-22T05:43:53;26.47;;;11.20;;
549;SDS011;20066;48.764;9.176;2023-06-22T05:46:21;19.33;;;10.90;;
549;SDS011;20066;48.764;9.176;2023-06-22T05:48:50;24.30;;;11.20;;
549;SDS011;20066;48.764;9.176;2023-06-22T05:51:18;20.83;;;11.57;;
549;SDS011;20066;48.764;9.176;2023-06-22T05:53:46;20.00;;;11.90;;
549;SDS011;20066;48.764;9.176;2023-06-22T05:56:16;17.60;;;10.13;;
549;SDS011;20066;48.764;9.176;2023-06-22T05:58:45;17.43;;;10.17;;
549;SDS011;20066;48.764;9.176;2023-06-22T06:01:13;16.53;;;10.63;;
549;SDS011;20066;48.764;9.176;2023-06-22T06:03:42;19.50;;;10.60;;
549;SDS011;20066;48.764;9.176;2023-06-22T06:06:11;17.93;;;9.57;;
549;SDS011;20066;48.764;9.176;2023-06-22T06:08:39;17.70;;;10.43;;
549;SDS011;20066;48.764;9.176;2023-06-22T06:11:08;17.97;;;9.83;;
549;SDS011;20066;48.764;9.176;2023-06-22T06:13:36;22.23;;;10.30;;
549;SDS011;20066;48.764;9.176;2023-06-22T06:16:04;18.00;;;9.63;;
549;SDS011;20066;48.764;9.176;2023-06-22T06:18:32;15.33;;;9.47;;
549;SDS011;20066;48.764;9.176;2023-06-22T06:21:00;16.10;;;10.10;;
549;SDS011;20066;48.764;9.176;2023-06-22T06:23:31;16.70;;;9.70;;
549;SDS011;20066;48.764;9.176;2023-06-22T06:25:59;18.53;;;9.80;;
549;SDS011;20066;48.764;9.176;2023-06-22T06:28:27;18.30;;;9.10;;
549;SDS011;20066;48.764;9.176;2023-06-22T06:30:55;15.17;;;9.30;;
549;SDS011;20066;48.764;9.176;2023-06-22T06:33:26;19.07;;;9.27;;
549;SDS011;20066;48.764;9.176;2023-06-22T06:35:54;18.60;;;9.53;;
549;SDS011;20066;48.764;9.176;2023-06-22T06:38:22;17.43;;;8.80;;
549;SDS011;20066;48.764;9.176;2023-06-22T06:40:52;15.77;;;9.30;;
549;SDS011;20066;48.764;9.176;2023-06-22T06:43:20;16.77;;;8.70;;
549;SDS011;20066;48.764;9.176;2023-06-22T06:45:48;24.07;;;8.70;;
549;SDS011;20066;48.764;9.176;2023-06-22T06:48:18;16.20;;;9.20;;
549;SDS011;20066;48.764;9.176;2023-06-22T06:50:45;16.13;;;8.23;;
549;SDS011;20066;48.764;9.176;2023-06-22T06:53:13;16.27;;;8.30;;
549;SDS011;20066;48.764;9.176;2023-06-22T06:55:41;15.93;;;8.60;;
549;SDS011;20066;48.764;9.176;2023-06-22T06:58:13;18.60;;;8.20;;
549;SDS011;20066;48.764;9.176;2023-06-22T07:00:41;17.67;;;8.13;;
549;SDS011;20066;48.764;9.176;2023-06-22T07:03:09;17.40;;;8.13;;
549;SDS011;20066;48.764;9.176;2023-06-22T07:05:37;16.00;;;8.07;;
549;SDS011;20066;48.764;9.176;2023-06-22T07:08:05;15.50;;;8.10;;
549;SDS011;20066;48.764;9.176;2023-06-22T07:10:33;16.80;;;8.97;;
549;SDS011;20066;48.764;9.176;2023-06-22T07:13:01;18.17;;;8.60;;
549;SDS011;20066;48.764;9.176;2023-06-22T07:15:30;16.13;;;7.47;;
549;SDS011;20066;48.764;9.176;2023-06-22T07:17:58;16.63;;;10.23;;
549;SDS011;20066;48.764;9.176;2023-06-22T07:20:25;11.07;;;7.03;;
549;SDS011;20066;48.764;9.176;2023-06-22T07:22:54;23.83;;;9.00;;
549;SDS011;20066;48.764;9.176;2023-06-22T07:25:21;15.40;;;7.87;;
549;SDS011;20066;48.764;9.176;2023-06-22T07:27:56;12.80;;;7.70;;
549;SDS011;20066;48.764;9.176;2023-06-22T07:30:25;11.70;;;7.10;;
549;SDS011;20066;48.764;9.176;2023-06-22T07:32:55;13.37;;;7.83;;
549;SDS011;20066;48.764;9.176;2023-06-22T07:35:24;12.07;;;7.57;;
549;SDS011;20066;48.764;9.176;2023-06-22T07:37:52;21.23;;;8.00;;
549;SDS011;20066;48.764;9.176;2023-06-22T07:40:20;14.63;;;7.33;;
549;SDS011;20066;48.764;9.176;2023-06-22T07:42:47;15.83;;;7.93;;
549;SDS011;20066;48.764;9.176;2023-06-22T07:45:18;20.93;;;7.03;;
549;SDS011;20066;48.764;9.176;2023-06-22T07:47:45;16.93;;;6.80;;
549;SDS011;20066;48.764;9.176;2023-06-22T07:50:15;11.40;;;6.63;;
549;SDS011;20066;48.764;9.176;2023-06-22T07:52:43;11.10;;;6.50;;
549;SDS011;20066;48.764;9.176;2023-06-22T07:55:11;13.30;;;6.40;;
549;SDS011;20066;48.764;9.176;2023-06-22T07:57:38;16.90;;;7.33;;
549;SDS011;20066;48.764;9.176;2023-06-22T08:00:08;12.90;;;5.90;;
549;SDS011;20066;48.764;9.176;2023-06-22T08:02:41;10.47;;;6.03;;
549;SDS011;20066;48.764;9.176;2023-06-22T08:05:09;11.30;;;5.80;;
549;SDS011;20066;48.764;9.176;2023-06-22T08:07:42;12.90;;;5.60;;
549;SDS011;20066;48.764;9.176;2023-06-22T08:10:13;14.33;;;6.60;;
549;SDS011;20066;48.764;9.176;2023-06-22T08:12:41;11.20;;;6.03;;
549;SDS011;20066;48.764;9.176;2023-06-22T08:15:10;18.53;;;6.43;;
549;SDS011;20066;48.764;9.176;2023-06-22T08:17:38;11.50;;;5.27;;
549;SDS011;20066;48.764;9.176;2023-06-22T08:20:06;15.30;;;5.60;;
549;SDS011;20066;48.764;9.176;2023-06-22T08:22:38;12.60;;;5.27;;
549;SDS011;20066;48.764;9.176;2023-06-22T08:25:08;13.27;;;6.10;;
549;SDS011;20066;48.764;9.176;2023-06-22T08:27:37;13.90;;;5.70;;
549;SDS011;20066;48.764;9.176;2023-06-22T08:30:05;13.70;;;6.17;;
549;SDS011;20066;48.764;9.176;2023-06-22T08:32:34;12.20;;;6.10;;
549;SDS011;20066;48.764;9.176;2023-06-22T08:35:02;13.60;;;6.03;;
549;SDS011;20066;48.764;9.176;2023-06-22T08:37:32;12.87;;;6.47;;
549;SDS011;20066;48.764;9.176;2023-06-22T08:40:03;10.83;;;5.60;;
549;SDS011;20066;48.764;9.176;2023-06-22T08:42:35;10.90;;;5.00;;
549;SDS011;20066;48.764;9.176;2023-06-22T08:45:04;12.73;;;5.70;;
549;SDS011;20066;48.764;9.176;2023-06-22T08:47:33;13.73;;;5.53;;
549;SDS011;20066;48.764;9.176;2023-06-22T08:50:01;11.30;;;6.07;;
549;SDS011;20066;48.764;9.176;2023-06-22T08:52:30;12.13;;;5.93;;
549;SDS011;20066;48.764;9.176;2023-06-22T08:54:58;16.33;;;6.20;;
549;SDS011;20066;48.764;9.176;2023-06-22T08:57:26;13.73;;;6.33;;
549;SDS011;20066;48.764;9.176;2023-06-22T08:59:55;13.00;;;6.03;;
549;SDS011;20066;48.764;9.176;2023-06-22T09:02:25;14.63;;;6.07;;
549;SDS011;20066;48.764;9.176;2023-06-22T09:04:58;13.70;;;5.90;;
549;SDS011;20066;48.764;9.176;2023-06-22T09:07:26;12.37;;;5.90;;
549;SDS011;20066;48.764;9.176;2023-06-22T09:09:55;18.90;;;6.33;;
549;SDS011;20066;48.764;9.176;2023-06-22T09:12:23;17.90;;;6.80;;
549;SDS011;20066;48.764;9.176;2023-06-22T09:14:53;19.00;;;7.20;;
549;SDS011;20066;48.764;9.176;2023-06-22T09:17:22;18.73;;;6.00;;
549;SDS011;20066;48.764;9.176;2023-06-22T09:19:50;17.37;;;6.40;;
549;SDS011;20066;48.764;9.176;2023-06-22T09:22:18;13.93;;;6.83;;
549;SDS011;20066;48.764;9.176;2023-06-22T09:24:46;12.17;;;5.90;;
549;SDS011;20066;48.764;9.176;2023-06-22T09:27:15;17.57;;;7.13;;
549;SDS011;20066;48.764;9.176;2023-06-22T09:29:42;13.10;;;6.03;;
549;SDS011;20066;48.764;9.176;2023-06-22T09:32:13;13.30;;;5.87;;
549;SDS011;20066;48.764;9.176;2023-06-22T09:34:42;12.37;;;6.10;;
549;SDS011;20066;48.764;9.176;2023-06-22T09:37:10;13.33;;;6.30;;
549;SDS011;20066;48.764;9.176;2023-06-22T09:39:39;22.20;;;6.20;;
549;SDS011;20066;48.764;9.176;2023-06-22T09:42:07;15.47;;;6.20;;
549;SDS011;20066;48.764;9.176;2023-06-22T09:44:35;12.17;;;6.50;;
549;SDS011;20066;48.764;9.176;2023-06-22T09:47:03;18.07;;;6.07;;
549;SDS011;20066;48.764;9.176;2023-06-22T09:49:32;14.27;;;5.77;;
549;SDS011;20066;48.764;9.176;2023-06-22T09:52:15;10.50;;;5.63;;
549;SDS011;20066;48.764;9.176;2023-06-22T09:54:43;19.03;;;7.63;;
549;SDS011;20066;48.764;9.176;2023-06-22T09:57:11;20.00;;;5.60;;
549;SDS011;20066;48.764;9.176;2023-06-22T09:59:39;15.50;;;6.50;;
549;SDS011;20066;48.764;9.176;2023-06-22T10:02:07;27.70;;;6.80;;
549;SDS011;20066;48.764;9.176;2023-06-22T10:04:36;20.73;;;6.67;;
549;SDS011;20066;48.764;9.176;2023-06-22T10:07:06;12.67;;;5.90;;
549;SDS011;20066;48.764;9.176;2023-06-22T10:09:35;17.63;;;6.90;;
549;SDS011;20066;48.764;9.176;2023-06-22T10:12:03;10.57;;;5.93;;
549;SDS011;20066;48.764;9.176;2023-06-22T10:14:31;13.60;;;7.10;;
549;SDS011;20066;48.764;9.176;2023-06-22T10:16:59;11.47;;;6.00;;
549;SDS011;20066;48.764;9.176;2023-06-22T10:19:27;18.77;;;6.20;;
549;SDS011;20066;48.764;9.176;2023-06-22T10:21:55;19.30;;;6.83;;
549;SDS011;20066;48.764;9.176;2023-06-22T10:24:22;15.00;;;7.33;;
549;SDS011;20066;48.764;9.176;2023-06-22T10:26:52;16.00;;;6.73;;
549;SDS011;20066;48.764;9.176;2023-06-22T10:29:20;15.30;;;6.33;;
549;SDS011;20066;48.764;9.176;2023-06-22T10:31:47;14.40;;;6.70;;
549;SDS011;20066;48.764;9.176;2023-06-22T10:34:15;18.60;;;7.27;;
549;SDS011;20066;48.764;9.176;2023-06-22T10:36:43;14.87;;;6.80;;
549;SDS011;20066;48.764;9.176;2023-06-22T10:39:13;14.77;;;6.47;;
549;SDS011;20066;48.764;9.176;2023-06-22T10:41:41;18.33;;;7.40;;
549;SDS011;20066;48.764;9.176;2023-06-22T10:44:10;13.67;;;6.73;;
549;SDS011;20066;48.764;9.176;2023-06-22T10:46:39;15.87;;;7.30;;
549;SDS011;20066;48.764;9.176;2023-06-22T10:49:07;16.80;;;6.13;;
549;SDS011;20066;48.764;9.176;2023-06-22T10:51:35;22.20;;;7.20;;
549;SDS011;20066;48.764;9.176;2023-06-22T10:54:03;16.33;;;6.13;;
549;SDS011;20066;48.764;9.176;2023-06-22T10:56:31;17.30;;;6.90;;
549;SDS011;20066;48.764;9.176;2023-06-22T10:59:00;25.23;;;7.73;;
549;SDS011;20066;48.764;9.176;2023-06-22T11:01:29;18.47;;;7.47;;
549;SDS011;20066;48.764;9.176;2023-06-22T11:04:02;14.03;;;6.90;;
549;SDS011;20066;48.764;9.176;2023-06-22T11:06:30;16.30;;;7.13;;
549;SDS011;20066;48.764;9.176;2023-06-22T11:08:58;18.63;;;7.70;;
549;SDS011;20066;48.764;9.176;2023-06-22T11:11:42;14.43;;;7.20;;
549;SDS011;20066;48.764;9.176;2023-06-22T11:14:10;12.40;;;7.27;;
549;SDS011;20066;48.764;9.176;2023-06-22T11:16:39;15.03;;;6.20;;
549;SDS011;20066;48.764;9.176;2023-06-22T11:19:07;15.67;;;7.30;;
549;SDS011;20066;48.764;9.176;2023-06-22T11:21:35;15.50;;;6.53;;
549;SDS011;20066;48.764;9.176;2023-06-22T11:24:04;16.73;;;6.90;;
549;SDS011;20066;48.764;9.176;2023-06-22T11:26:32;16.40;;;6.93;;
549;SDS011;20066;48.764;9.176;2023-06-22T11:29:01;16.33;;;6.70;;
549;SDS011;20066;48.764;9.176;2023-06-22T11:31:31;17.60;;;6.40;;
549;SDS011;20066;48.764;9.176;2023-06-22T11:34:01;15.20;;;6.17;;
549;SDS011;20066;48.764;9.176;2023-06-22T11:36:29;15.93;;;7.00;;
549;SDS011;20066;48.764;9.176;2023-06-22T11:38:59;12.43;;;6.87;;
549;SDS011;20066;48.764;9.176;2023-06-22T11:41:32;14.10;;;6.70;;
549;SDS011;20066;48.764;9.176;2023-06-22T11:44:00;18.30;;;6.80;;
549;SDS011;20066;48.764;9.176;2023-06-22T11:46:27;16.53;;;6.63;;
549;SDS011;20066;48.764;9.176;2023-06-22T11:48:55;18.33;;;7.67;;
549;SDS011;20066;48.764;9.176;2023-06-22T11:51:24;19.90;;;6.90;;
549;SDS011;20066;48.764;9.176;2023-06-22T11:53:53;15.57;;;7.70;;
549;SDS011;20066;48.764;9.176;2023-06-22T11:56:21;21.47;;;8.27;;
549;SDS011;20066;48.764;9.176;2023-06-22T11:58:49;14.93;;;6.87;;
549;SDS011;20066;48.764;9.176;2023-06-22T12:01:17;16.43;;;8.43;;
549;SDS011;20066;48.764;9.176;2023-06-22T12:03:44;27.37;;;7.47;;
549;SDS011;20066;48.764;9.176;2023-06-22T12:06:12;17.33;;;7.50;;
549;SDS011;20066;48.764;9.176;2023-06-22T12:08:43;22.00;;;6.87;;
549;SDS011;20066;48.764;9.176;2023-06-22T12:11:11;16.27;;;7.40;;
549;SDS011;20066;48.764;9.176;2023-06-22T12:13:38;23.40;;;7.97;;
549;SDS011;20066;48.764;9.176;2023-06-22T12:16:06;17.67;;;7.70;;
549;SDS011;20066;48.764;9.176;2023-06-22T12:18:34;22.07;;;7.20;;
549;SDS011;20066;48.764;9.176;2023-06-22T12:21:02;25.00;;;6.70;;
549;SDS011;20066;48.764;9.176;2023-06-22T12:23:30;23.03;;;7.33;;
549;SDS011;20066;48.764;9.176;2023-06-22T12:25:59;17.83;;;7.70;;
549;SDS011;20066;48.764;9.176;2023-06-22T12:28:27;19.70;;;6.70;;
549;SDS011;20066;48.764;9.176;2023-06-22T12:30:55;16.13;;;7.23;;
549;SDS011;20066;48.764;9.176;2023-06-22T12:33:23;15.27;;;7.30;;
549;SDS011;20066;48.764;9.176;2023-06-22T12:35:51;13.33;;;6.50;;
549;SDS011;20066;48.764;9.176;2023-06-22T12:38:19;15.77;;;7.70;;
549;SDS011;20066;48.764;9.176;2023-06-22T12:40:46;16.60;;;8.00;;
549;SDS011;20066;48.764;9.176;2023-06-22T12:43:17;14.90;;;6.97;;
549;SDS011;20066;48.764;9.176;2023-06-22T12:45:44;17.63;;;6.57;;
549;SDS011;20066;48.764;9.176;2023-06-22T12:48:12;12.50;;;7.67;;
549;SDS011;20066;48.764;9.176;2023-06-22T12:50:40;17.57;;;7.67;;
549;SDS011;20066;48.764;9.176;2023-06-22T12:53:08;22.13;;;7.87;;
549;SDS011;20066;48.764;9.176;2023-06-22T12:55:35;15.20;;;6.67;;
549;SDS011;20066;48.764;9.176;2023-06-22T12:58:06;13.70;;;7.73;;
549;SDS011;20066;48.764;9.176;2023-06-22T13:00:35;21.30;;;7.10;;
549;SDS011;20066;48.764;9.176;2023-06-22T13:03:03;17.90;;;7.00;;
549;SDS011;20066;48.764;9.176;2023-06-22T13:05:31;20.13;;;7.57;;
549;SDS011;20066;48.764;9.176;2023-06-22T13:08:01;12.10;;;6.67;;
549;SDS011;20066;48.764;9.176;2023-06-22T13:10:29;23.10;;;7.40;;
549;SDS011;20066;48.764;9.176;2023-06-22T13:12:57;22.47;;;7.10;;
549;SDS011;20066;48.764;9.176;2023-06-22T13:15:27;15.80;;;7.90;;
549;SDS011;20066;48.764;9.176;2023-06-22T13:17:57;21.17;;;7.30;;
549;SDS011;20066;48.764;9.176;2023-06-22T13:20:25;18.23;;;7.67;;
549;SDS011;20066;48.764;9.176;2023-06-22T13:22:54;15.87;;;7.00;;
549;SDS011;20066;48.764;9.176;2023-06-22T13:25:22;24.33;;;7.83;;
549;SDS011;20066;48.764;9.176;2023-06-22T13:27:53;18.63;;;7.80;;
549;SDS011;20066;48.764;9.176;2023-06-22T13:30:21;16.60;;;6.60;;
549;SDS011;20066;48.764;9.176;2023-06-22T13:32:49;22.93;;;7.50;;
549;SDS011;20066;48.764;9.176;2023-06-22T13:35:18;17.20;;;7.30;;
549;SDS011;20066;48.764;9.176;2023-06-22T13:37:46;15.07;;;6.50;;
549;SDS011;20066;48.764;9.176;2023-06-22T13:40:13;22.10;;;7.60;;
549;SDS011;20066;48.764;9.176;2023-06-22T13:42:41;22.10;;;7.63;;
549;SDS011;20066;48.764;9.176;2023-06-22T13:45:09;16.23;;;7.00;;
549;SDS011;20066;48.764;9.176;2023-06-22T13:47:37;16.40;;;7.40;;
549;SDS011;20066;48.764;9.176;2023-06-22T13:50:06;21.90;;;7.60;;
549;SDS011;20066;48.764;9.176;2023-06-22T13:52:35;15.60;;;6.50;;
549;SDS011;20066;48.764;9.176;2023-06-22T13:55:04;17.80;;;7.83;;
549;SDS011;20066;48.764;9.176;2023-06-22T13:57:33;18.17;;;6.83;;
549;SDS011;20066;48.764;9.176;2023-06-22T14:00:59;15.57;;;5.90;;
549;SDS011;20066;48.764;9.176;2023-06-22T14:04:26;16.83;;;7.57;;
549;SDS011;20066;48.764;9.176;2023-06-22T14:07:54;16.63;;;6.20;;
549;SDS011;20066;48.764;9.176;2023-06-22T14:11:20;15.37;;;5.93;;
549;SDS011;20066;48.764;9.176;2023-06-22T14:14:49;18.40;;;6.33;;
549;SDS011;20066;48.764;9.176;2023-06-22T14:18:18;15.13;;;6.00;;
549;SDS011;20066;48.764;9.176;2023-06-22T14:21:45;12.93;;;5.67;;
549;SDS011;20066;48.764;9.176;2023-06-22T14:25:13;11.93;;;5.37;;
549;SDS011;20066;48.764;9.176;2023-06-22T14:28:39;15.90;;;6.00;;
549;SDS011;20066;48.764;9.176;2023-06-22T14:32:06;10.70;;;5.40;;
549;SDS011;20066;48.764;9.176;2023-06-22T14:35:36;16.87;;;5.43;;
549;SDS011;20066;48.764;9.176;2023-06-22T14:39:02;17.13;;;5.50;;
549;SDS011;20066;48.764;9.176;2023-06-22T14:42:30;21.20;;;4.90;;
549;SDS011;20066;48.764;9.176;2023-06-22T14:45:57;13.10;;;5.60;;
549;SDS011;20066;48.764;9.176;2023-06-22T14:49:23;11.90;;;5.07;;
549;SDS011;20066;48.764;9.176;2023-06-22T14:52:49;17.20;;;5.03;;
549;SDS011;20066;48.764;9.176;2023-06-22T14:56:16;15.70;;;4.23;;
549;SDS011;20066;48.764;9.176;2023-06-22T14:59:47;20.90;;;3.50;;
549;SDS011;20066;48.764;9.176;2023-06-22T15:03:14;21.73;;;4.13;;
549;SDS011;20066;48.764;9.176;2023-06-22T15:06:40;10.50;;;3.73;;
549;SDS011;20066;48.764;9.176;2023-06-22T15:10:07;13.13;;;5.23;;
549;SDS011;20066;48.764;9.176;2023-06-22T15:13:34;17.90;;;3.87;;
549;SDS011;20066;48.764;9.176;2023-06-22T15:17:02;11.63;;;3.73;;
549;SDS011;20066;48.764;9.176;2023-06-22T15:20:31;13.57;;;5.30;;
549;SDS011;20066;48.764;9.176;2023-06-22T15:23:57;11.47;;;4.53;;
549;SDS011;20066;48.764;9.176;2023-06-22T15:27:24;16.90;;;4.30;;
549;SDS011;20066;48.764;9.176;2023-06-22T15:30:50;16.20;;;4.27;;
549;SDS011;20066;48.764;9.176;2023-06-22T15:34:20;13.80;;;4.27;;
549;SDS011;20066;48.764;9.176;2023-06-22T15:37:46;13.97;;;4.27;;